Time;durP1;ratioP1;P1;durP2;ratioP2;P2;SDS_P1;SDS_P2;PMS_P1;PMS_P2;Temp;Humidity;BMP_temperature;BMP_pressure;BME280_temperature;BME280_humidity;BME280_pressure;Samples;Min_cycle;Max_cycle;Signal;HPM_P1;HPM_P2
2023/04/16 00:00:56;;;;;;;13.07;2.72;;;;;;;7.59;nan;102168.50;5054945;28;20043;-42
2023/04/16 00:03:22;;;;;;;11.05;3.47;;;;;;;7.98;nan;102240.16;5054469;28;20044;-46
2023/04/16 00:05:48;;;;;;;14.75;3.72;;;;;;;7.98;nan;102238.41;5054226;28;20036;-45
2023/04/16 00:08:13;;;;;;;11.75;3.13;;;;;;;8.06;nan;102255.03;5053594;28;20044;-42
2023/04/16 00:10:38;;;;;;;10.52;2.88;;;;;;;8.09;nan;102254.16;5054489;28;20037;-44
2023/04/16 00:13:04;;;;;;;11.27;2.97;;;;;;;8.04;nan;102250.66;5053473;28;20037;-44
2023/04/16 00:15:29;;;;;;;13.63;2.75;;;;;;;7.67;nan;102185.13;5053645;28;20065;-42
2023/04/16 00:17:54;;;;;;;7.00;2.67;;;;;;;8.07;nan;102254.16;5054616;28;20040;-42
2023/04/16 00:20:20;;;;;;;11.75;2.95;;;;;;;8.02;nan;102253.31;5054344;28;20045;-43
2023/04/16 00:22:45;;;;;;;10.27;2.15;;;;;;;7.98;nan;102245.41;5054454;28;20043;-42
2023/04/16 00:25:12;;;;;;;14.32;2.78;;;;;;;7.63;nan;102180.72;5054498;28;20048;-43
2023/04/16 00:27:37;;;;;;;10.32;2.45;;;;;;;8.09;nan;102255.03;5053029;28;20037;-42
2023/04/16 00:30:03;;;;;;;12.32;3.38;;;;;;;7.92;nan;102226.19;5054302;28;20041;-41
2023/04/16 00:32:29;;;;;;;13.25;3.88;;;;;;;8.09;nan;102249.78;5054081;28;20025;-46
2023/04/16 00:34:54;;;;;;;9.73;2.60;;;;;;;8.01;nan;102232.31;5054139;28;20044;-45
2023/04/16 00:37:20;;;;;;;10.93;2.67;;;;;;;7.94;nan;102220.94;5052536;28;20055;-43
2023/04/16 00:39:45;;;;;;;7.15;2.40;;;;;;;8.04;nan;102242.78;5052519;28;20369;-45
2023/04/16 00:42:10;;;;;;;21.63;3.58;;;;;;;8.07;nan;102245.41;5052941;28;20045;-44
2023/04/16 00:44:36;;;;;;;9.43;2.70;;;;;;;7.65;nan;102176.34;5053809;28;20029;-42
2023/04/16 00:47:02;;;;;;;7.32;2.25;;;;;;;7.95;nan;102222.69;5053619;28;20048;-42
2023/04/16 00:49:27;;;;;;;9.73;3.05;;;;;;;7.63;nan;102154.53;5053429;28;20161;-43
2023/04/16 00:51:52;;;;;;;8.82;3.30;;;;;;;7.63;nan;102156.28;5052768;28;20037;-42
2023/04/16 00:54:18;;;;;;;8.88;2.60;;;;;;;8.09;nan;102239.28;5052339;28;20381;-42
2023/04/16 00:56:44;;;;;;;7.78;2.53;;;;;;;7.78;nan;102187.72;5052716;28;20025;-45
2023/04/16 00:59:09;;;;;;;8.95;2.53;;;;;;;8.09;nan;102249.78;5053912;28;20033;-44
2023/04/16 01:01:34;;;;;;;9.18;2.78;;;;;;;8.00;nan;102234.03;5052161;28;20526;-44
2023/04/16 01:04:00;;;;;;;7.22;3.13;;;;;;;8.07;nan;102230.56;5053848;28;20042;-43
2023/04/16 01:06:25;;;;;;;7.90;2.70;;;;;;;8.16;nan;102243.69;5053675;28;20392;-42
2023/04/16 01:08:51;;;;;;;11.32;2.60;;;;;;;7.84;nan;102204.34;5052239;28;20040;-42
2023/04/16 01:11:16;;;;;;;11.48;2.90;;;;;;;8.00;nan;102231.44;5052244;28;20041;-44
2023/04/16 01:13:41;;;;;;;10.95;3.03;;;;;;;7.78;nan;102192.97;5053382;28;20037;-44
2023/04/16 01:16:09;;;;;;;10.50;2.70;;;;;;;8.05;nan;102239.31;5052029;28;20361;-44
2023/04/16 01:18:35;;;;;;;10.00;2.67;;;;;;;7.88;nan;102218.34;5053231;28;20056;-43
2023/04/16 01:21:00;;;;;;;13.55;3.28;;;;;;;7.86;nan;102209.56;5052142;28;20383;-44
2023/04/16 01:23:25;;;;;;;13.45;3.08;;;;;;;7.73;nan;102187.75;5053178;28;20037;-47
2023/04/16 01:25:51;;;;;;;10.90;3.47;;;;;;;7.90;nan;102235.81;5053505;28;20117;-41
2023/04/16 01:28:16;;;;;;;7.78;3.08;;;;;;;8.07;nan;102256.78;5051662;28;20425;-45
2023/04/16 01:30:42;;;;;;;8.90;3.15;;;;;;;8.04;nan;102245.41;5053151;28;20048;-45
2023/04/16 01:33:10;;;;;;;8.80;3.65;;;;;;;8.05;nan;102252.41;5051708;28;20064;-44
2023/04/16 01:35:35;;;;;;;9.70;3.20;;;;;;;7.71;nan;102199.94;5053275;28;20123;-46
2023/04/16 01:38:01;;;;;;;9.93;2.90;;;;;;;8.03;nan;102255.03;5053153;28;20125;-43
2023/04/16 01:40:26;;;;;;;11.23;3.45;;;;;;;7.99;nan;102255.03;5051664;28;20033;-44
2023/04/16 01:42:52;;;;;;;10.00;3.78;;;;;;;8.04;nan;102261.16;5052854;28;20040;-44
2023/04/16 01:45:17;;;;;;;12.05;3.60;;;;;;;8.01;nan;102258.53;5052790;28;20029;-45
2023/04/16 01:47:42;;;;;;;12.55;3.67;;;;;;;7.93;nan;102240.19;5052651;28;20037;-45
2023/04/16 01:50:08;;;;;;;10.77;4.57;;;;;;;8.01;nan;102253.28;5051509;28;20205;-50
2023/04/16 01:52:34;;;;;;;7.28;3.10;;;;;;;7.85;nan;102234.06;5051670;28;20498;-46
2023/04/16 01:54:59;;;;;;;9.35;3.55;;;;;;;8.04;nan;102256.78;5052586;28;20090;-42
2023/04/16 01:57:24;;;;;;;15.60;3.88;;;;;;;8.03;nan;102259.38;5052855;28;20052;-43
2023/04/16 01:59:49;;;;;;;8.48;3.10;;;;;;;8.02;nan;102274.28;5052797;28;20033;-43
2023/04/16 02:02:15;;;;;;;15.02;3.67;;;;;;;7.97;nan;102262.03;5051369;28;20048;-43
2023/04/16 02:04:42;;;;;;;11.93;3.53;;;;;;;7.95;nan;102256.78;5052819;28;20035;-41
2023/04/16 02:07:08;;;;;;;8.05;3.63;;;;;;;7.99;nan;102262.91;5052188;28;20172;-42
2023/04/16 02:09:38;;;;;;;12.82;3.97;;;;;;;7.97;nan;102260.25;5052181;28;20040;-44
2023/04/16 02:12:03;;;;;;;14.50;4.55;;;;;;;7.94;nan;102263.75;5052512;28;20087;-45
2023/04/16 02:14:29;;;;;;;12.63;4.03;;;;;;;7.92;nan;102264.63;5052270;28;20392;-43
2023/04/16 02:16:55;;;;;;;11.52;4.00;;;;;;;7.49;nan;102194.69;5050927;28;20037;-43
2023/04/16 02:19:20;;;;;;;14.95;3.95;;;;;;;7.64;nan;102220.91;5052544;28;20043;-45
2023/04/16 02:21:46;;;;;;;11.32;4.47;;;;;;;7.87;nan;102264.66;5051009;28;20033;-44
2023/04/16 02:24:12;;;;;;;12.45;4.80;;;;;;;7.79;nan;102266.34;5051864;28;20033;-45
2023/04/16 02:26:37;;;;;;;14.32;4.78;;;;;;;7.70;nan;102247.16;5051082;28;20396;-47
2023/04/16 02:29:02;;;;;;;15.15;4.72;;;;;;;7.79;nan;102268.13;5052209;28;20413;-45
2023/04/16 02:31:28;;;;;;;11.23;4.47;;;;;;;7.82;nan;102268.97;5051884;28;20041;-42
2023/04/16 02:33:53;;;;;;;11.90;3.72;;;;;;;7.86;nan;102281.25;5052306;28;20033;-43
2023/04/16 02:36:19;;;;;;;9.98;4.15;;;;;;;7.33;nan;102183.28;5051267;28;20194;-43
2023/04/16 02:38:45;;;;;;;15.18;3.97;;;;;;;7.44;nan;102207.78;5051792;28;20480;-43
2023/04/16 02:41:10;;;;;;;16.92;4.63;;;;;;;7.46;nan;102213.91;5052025;28;20400;-43
2023/04/16 02:43:35;;;;;;;14.07;4.13;;;;;;;7.38;nan;102208.63;5052045;28;20025;-42
2023/04/16 02:46:01;;;;;;;12.48;4.63;;;;;;;6.76;nan;102097.63;5051958;28;20112;-44
2023/04/16 02:48:26;;;;;;;16.48;4.80;;;;;;;7.82;nan;102279.47;5051544;28;20033;-45
2023/04/16 02:50:51;;;;;;;14.50;5.28;;;;;;;7.71;nan;102268.09;5051604;28;20563;-44
2023/04/16 02:53:17;;;;;;;15.45;4.68;;;;;;;7.70;nan;102275.97;5052070;28;20520;-43
2023/04/16 02:55:51;;;;;;;18.60;5.15;;;;;;;7.57;nan;102258.47;5052217;28;20037;-45
2023/04/16 02:58:16;;;;;;;12.35;4.95;;;;;;;7.58;nan;102247.13;5051751;28;20048;-42
2023/04/16 03:00:42;;;;;;;12.90;6.18;;;;;;;7.68;nan;102278.56;5051725;28;20037;-44
2023/04/16 03:03:07;;;;;;;18.38;5.20;;;;;;;7.56;nan;102257.56;5051976;28;20111;-41
2023/04/16 03:05:32;;;;;;;16.50;5.32;;;;;;;7.61;nan;102261.09;5052397;28;20041;-42
2023/04/16 03:07:58;;;;;;;14.07;4.15;;;;;;;7.29;nan;102211.25;5056094;28;20037;-41
2023/04/16 03:10:23;;;;;;;13.07;4.75;;;;;;;7.54;nan;102259.31;5055735;28;20044;-43
2023/04/16 03:12:48;;;;;;;11.25;4.20;;;;;;;7.20;nan;102202.47;5051128;28;20036;-40
2023/04/16 03:15:14;;;;;;;18.33;5.25;;;;;;;7.58;nan;102257.59;5053879;28;20045;-47
2023/04/16 03:17:39;;;;;;;16.33;5.32;;;;;;;7.60;nan;102269.81;5055846;28;20090;-42
2023/04/16 03:20:05;;;;;;;18.25;5.40;;;;;;;7.20;nan;102205.97;5055215;28;20392;-45
2023/04/16 03:22:30;;;;;;;14.50;5.78;;;;;;;7.61;nan;102268.97;5054461;28;20120;-44
2023/04/16 03:24:56;;;;;;;14.88;4.85;;;;;;;7.64;nan;102270.72;5055438;28;20528;-42
2023/04/16 03:27:21;;;;;;;13.88;4.85;;;;;;;7.26;nan;102206.00;5070139;28;20543;-47
2023/04/16 03:29:46;;;;;;;17.15;5.75;;;;;;;7.56;nan;102261.97;5055407;28;20033;-42
2023/04/16 03:32:12;;;;;;;20.30;5.30;;;;;;;7.61;nan;102271.59;5054160;28;20037;-43
2023/04/16 03:34:37;;;;;;;12.52;4.60;;;;;;;7.62;nan;102269.81;5070906;28;20025;-44
2023/04/16 03:37:04;;;;;;;15.00;4.93;;;;;;;7.49;nan;102253.22;5054890;28;20399;-46
2023/04/16 03:39:30;;;;;;;17.88;5.15;;;;;;;7.68;nan;102272.44;5055736;28;20052;-42
2023/04/16 03:41:55;;;;;;;14.15;5.53;;;;;;;7.32;nan;102211.25;5055370;28;20423;-45
2023/04/16 03:44:21;;;;;;;10.48;3.70;;;;;;;7.30;nan;102218.22;5055314;28;20167;-47
2023/04/16 03:46:46;;;;;;;10.23;3.80;;;;;;;7.57;nan;102259.34;5054456;28;20041;-45
2023/04/16 03:49:11;;;;;;;11.02;3.80;;;;;;;7.61;nan;102271.59;5054556;28;20103;-44
2023/04/16 03:51:36;;;;;;;10.45;4.05;;;;;;;7.64;nan;102278.56;5055081;28;20138;-46
2023/04/16 03:54:02;;;;;;;12.93;3.95;;;;;;;7.64;nan;102275.97;5055108;28;20560;-44
2023/04/16 03:56:27;;;;;;;23.02;5.95;;;;;;;7.32;nan;102216.50;5055269;28;20041;-43
2023/04/16 03:58:52;;;;;;;10.30;4.10;;;;;;;7.50;nan;102264.56;5070037;28;20041;-43
2023/04/16 04:01:18;;;;;;;12.88;4.07;;;;;;;7.60;nan;102269.81;5055071;28;20039;-41
2023/04/16 04:03:43;;;;;;;12.23;4.50;;;;;;;7.58;nan;102275.94;5055273;28;20029;-45
2023/04/16 04:06:08;;;;;;;8.55;3.70;;;;;;;7.55;nan;102289.03;5053834;28;20134;-42
2023/04/16 04:08:34;;;;;;;9.52;4.10;;;;;;;7.18;nan;102209.47;5054020;28;20182;-43
2023/04/16 04:10:59;;;;;;;8.45;3.45;;;;;;;7.19;nan;102209.47;5054296;28;20052;-45
2023/04/16 04:13:24;;;;;;;12.25;4.40;;;;;;;7.23;nan;102215.59;5052614;28;20037;-43
2023/04/16 04:15:50;;;;;;;11.77;4.15;;;;;;;7.57;nan;102274.19;5054767;28;20057;-49
2023/04/16 04:18:15;;;;;;;10.32;3.90;;;;;;;7.50;nan;102260.19;5053880;28;20056;-43
2023/04/16 04:20:40;;;;;;;10.95;4.72;;;;;;;7.22;nan;102212.09;5054890;28;20231;-44
2023/04/16 04:23:06;;;;;;;14.15;4.05;;;;;;;7.53;nan;102281.16;5070093;28;20051;-44
2023/04/16 04:25:31;;;;;;;9.35;3.90;;;;;;;7.47;nan;102277.66;5054306;28;20404;-45
2023/04/16 04:27:56;;;;;;;9.60;3.83;;;;;;;7.48;nan;102282.88;5052267;28;20044;-41
2023/04/16 04:30:22;;;;;;;11.13;3.83;;;;;;;7.42;nan;102276.75;5053136;28;20439;-41
2023/04/16 04:32:47;;;;;;;13.38;4.03;;;;;;;7.13;nan;102225.16;5070140;28;20503;-44
2023/04/16 04:35:12;;;;;;;9.75;4.07;;;;;;;7.47;nan;102282.91;5069755;28;20037;-41
2023/04/16 04:37:38;;;;;;;13.20;4.13;;;;;;;7.48;nan;102279.38;5069010;28;20059;-44
2023/04/16 04:40:03;;;;;;;10.70;3.95;;;;;;;7.20;nan;102228.66;5054385;28;20379;-45
2023/04/16 04:42:29;;;;;;;12.65;4.10;;;;;;;7.49;nan;102291.63;5054111;28;20040;-44
2023/04/16 04:44:54;;;;;;;11.60;3.72;;;;;;;7.47;nan;102291.63;5052830;28;20278;-42
2023/04/16 04:47:19;;;;;;;9.15;3.63;;;;;;;7.46;nan;102294.22;5053484;28;20055;-41
2023/04/16 04:49:45;;;;;;;15.25;4.30;;;;;;;7.08;nan;102223.38;5054031;28;20451;-45
2023/04/16 04:52:10;;;;;;;11.32;4.10;;;;;;;7.37;nan;102274.13;5052336;28;20043;-44
2023/04/16 04:54:36;;;;;;;19.48;4.32;;;;;;;7.15;nan;102233.03;5053943;28;20044;-44
2023/04/16 04:57:01;;;;;;;11.80;3.65;;;;;;;7.51;nan;102303.84;5053399;28;20037;-44
2023/04/16 04:59:27;;;;;;;9.10;3.33;;;;;;;7.49;nan;102299.50;5068088;28;20048;-43
2023/04/16 05:01:52;;;;;;;9.25;3.75;;;;;;;7.51;nan;102292.50;5067831;28;20044;-44
2023/04/16 05:04:18;;;;;;;13.40;4.05;;;;;;;7.49;nan;102303.00;5053984;28;20052;-47
2023/04/16 05:06:43;;;;;;;12.70;4.13;;;;;;;7.34;nan;102271.50;5052502;28;20049;-45
2023/04/16 05:09:12;;;;;;;11.20;3.40;;;;;;;7.52;nan;102304.75;5053092;28;20041;-42
2023/04/16 05:11:38;;;;;;;9.30;4.05;;;;;;;7.56;nan;102304.75;5047863;28;20389;-46
2023/04/16 05:14:03;;;;;;;14.00;4.38;;;;;;;7.55;nan;102305.63;5033525;28;20026;-43
2023/04/16 05:16:29;;;;;;;10.00;4.00;;;;;;;7.51;nan;102295.13;5053111;28;20057;-44
2023/04/16 05:18:54;;;;;;;12.68;4.60;;;;;;;7.54;nan;102310.84;5052410;28;20033;-40
2023/04/16 05:21:20;;;;;;;15.00;5.45;;;;;;;7.60;nan;102318.72;5052495;28;20039;-44
2023/04/16 05:23:46;;;;;;;13.60;4.55;;;;;;;7.25;nan;102254.00;5052209;28;20546;-46
2023/04/16 05:26:11;;;;;;;8.65;4.50;;;;;;;7.48;nan;102300.34;5042156;28;20068;-44
2023/04/16 05:28:36;;;;;;;13.98;4.78;;;;;;;7.60;nan;102311.75;5032925;28;20033;-42
2023/04/16 05:31:02;;;;;;;12.93;4.60;;;;;;;7.63;nan;102331.84;5049920;28;20048;-42
2023/04/16 05:33:27;;;;;;;17.27;4.88;;;;;;;7.63;nan;102327.50;5052257;28;20035;-45
2023/04/16 05:35:52;;;;;;;9.32;4.00;;;;;;;7.55;nan;102307.38;5051965;28;20411;-44
2023/04/16 05:38:18;;;;;;;11.25;5.05;;;;;;;7.68;nan;102330.09;5046218;28;20107;-41
2023/04/16 05:40:43;;;;;;;11.15;5.13;;;;;;;7.72;nan;102337.13;5049471;28;20044;-43
2023/04/16 05:43:08;;;;;;;14.98;5.15;;;;;;;7.73;nan;102336.25;5052826;28;20071;-45
2023/04/16 05:45:39;;;;;;;14.07;4.90;;;;;;;7.69;nan;102314.41;5052008;28;20021;-44
2023/04/16 05:48:08;;;;;;;13.75;5.22;;;;;;;7.38;nan;102255.78;5053091;28;20078;-44
2023/04/16 05:50:34;;;;;;;11.13;4.85;;;;;;;7.78;nan;102334.53;5051372;28;20087;-45
2023/04/16 05:53:00;;;;;;;15.32;4.75;;;;;;;7.38;nan;102267.16;5052862;28;20056;-43
2023/04/16 05:55:26;;;;;;;9.73;5.35;;;;;;;7.60;nan;102298.66;5052993;28;20106;-41
2023/04/16 05:57:51;;;;;;;9.32;4.75;;;;;;;7.58;nan;102310.88;5052642;28;20056;-43
2023/04/16 06:00:16;;;;;;;8.93;5.10;;;;;;;7.33;nan;102270.59;5052667;28;20029;-44
2023/04/16 06:02:42;;;;;;;10.32;4.22;;;;;;;7.74;nan;102328.38;5052472;28;20458;-43
2023/04/16 06:05:07;;;;;;;11.98;4.40;;;;;;;7.57;nan;102310.84;5051329;28;20032;-43
2023/04/16 06:07:32;;;;;;;10.23;4.72;;;;;;;7.74;nan;102343.22;5052672;28;20123;-43
2023/04/16 06:09:58;;;;;;;8.48;4.40;;;;;;;7.38;nan;102275.00;5068037;28;20037;-44
2023/04/16 06:12:23;;;;;;;12.00;5.20;;;;;;;7.76;nan;102338.91;5052851;28;20082;-43
2023/04/16 06:14:48;;;;;;;11.25;4.40;;;;;;;7.72;nan;102342.38;5052680;28;20076;-45
2023/04/16 06:17:14;;;;;;;9.68;4.63;;;;;;;7.65;nan;102330.97;5052588;28;20083;-45
2023/04/16 06:19:39;;;;;;;15.40;5.95;;;;;;;7.70;nan;102334.50;5051393;28;20254;-44
2023/04/16 06:22:05;;;;;;;14.70;5.45;;;;;;;7.73;nan;102337.16;5052488;28;20037;-46
2023/04/16 06:24:30;;;;;;;12.43;5.90;;;;;;;7.38;nan;102278.50;5052499;28;20037;-45
2023/04/16 06:26:56;;;;;;;12.23;5.68;;;;;;;7.41;nan;102293.34;5052251;28;20055;-44
2023/04/16 06:29:21;;;;;;;10.80;5.53;;;;;;;7.65;nan;102343.19;5051309;28;20033;-47
2023/04/16 06:31:47;;;;;;;11.00;6.10;;;;;;;7.71;nan;102351.97;5052122;28;20044;-46
2023/04/16 06:34:12;;;;;;;10.93;5.40;;;;;;;7.71;nan;102345.84;5052121;28;20033;-47
2023/04/16 06:36:37;;;;;;;9.05;6.38;;;;;;;7.74;nan;102349.34;5067676;28;20033;-44
2023/04/16 06:39:03;;;;;;;12.88;6.68;;;;;;;7.68;nan;102343.22;5052193;28;20078;-44
2023/04/16 06:41:29;;;;;;;7.75;6.15;;;;;;;7.76;nan;102359.88;5051116;28;20036;-45
2023/04/16 06:43:54;;;;;;;13.68;6.35;;;;;;;7.80;nan;102353.75;5050870;28;20061;-44
2023/04/16 06:46:19;;;;;;;13.20;5.93;;;;;;;7.57;nan;102316.09;5052293;28;20040;-41
2023/04/16 06:48:45;;;;;;;12.90;5.93;;;;;;;7.47;nan;102303.84;5052079;28;20610;-47
2023/04/16 06:51:10;;;;;;;11.90;5.97;;;;;;;7.43;nan;102300.34;5052143;28;20033;-44
2023/04/16 06:53:36;;;;;;;10.73;6.43;;;;;;;7.67;nan;102342.38;5067604;28;20037;-44
2023/04/16 06:56:01;;;;;;;9.82;6.47;;;;;;;7.81;nan;102359.00;5050808;28;20407;-47
2023/04/16 06:58:27;;;;;;;11.80;6.85;;;;;;;7.83;nan;102369.47;5051906;28;20025;-45
2023/04/16 07:00:52;;;;;;;12.13;6.63;;;;;;;7.51;nan;102308.22;5052229;28;20376;-42
2023/04/16 07:03:17;;;;;;;9.63;6.20;;;;;;;7.57;nan;102326.59;5051998;28;20429;-45
2023/04/16 07:05:43;;;;;;;12.00;6.30;;;;;;;7.90;nan;102373.88;5052078;28;20041;-51
2023/04/16 07:08:08;;;;;;;9.20;5.55;;;;;;;7.82;nan;102365.97;5051780;28;20044;-43
2023/04/16 07:10:34;;;;;;;10.98;6.00;;;;;;;7.87;nan;102368.63;5051701;28;20051;-46
2023/04/16 07:13:00;;;;;;;16.77;5.57;;;;;;;7.89;nan;102382.59;5051959;28;20131;-46
2023/04/16 07:15:26;;;;;;;9.90;5.95;;;;;;;7.54;nan;102311.72;5051691;28;20044;-44
2023/04/16 07:17:51;;;;;;;13.52;5.90;;;;;;;7.90;nan;102373.88;5051835;28;20033;-45
2023/04/16 07:20:16;;;;;;;14.18;6.00;;;;;;;7.86;nan;102367.75;5051829;28;20029;-45
2023/04/16 07:22:42;;;;;;;14.23;6.07;;;;;;;7.87;nan;102371.25;5051780;28;20036;-47
2023/04/16 07:25:08;;;;;;;9.30;5.85;;;;;;;7.92;nan;102362.53;5051806;28;20036;-44
2023/04/16 07:27:33;;;;;;;6.30;5.45;;;;;;;7.70;nan;102320.53;5051767;28;20025;-46
2023/04/16 07:29:58;;;;;;;9.93;5.82;;;;;;;8.08;nan;102380.94;5050549;28;20504;-44
2023/04/16 07:32:24;;;;;;;10.48;5.38;;;;;;;8.12;nan;102374.78;5050537;28;20124;-45
2023/04/16 07:34:49;;;;;;;11.80;6.18;;;;;;;8.17;nan;102383.56;5050739;28;20037;-43
2023/04/16 07:37:15;;;;;;;7.43;5.70;;;;;;;8.16;nan;102381.81;5050309;28;20407;-46
2023/04/16 07:39:40;;;;;;;13.93;6.20;;;;;;;8.19;nan;102387.94;5051685;28;20033;-44
2023/04/16 07:42:06;;;;;;;14.00;5.90;;;;;;;8.20;nan;102381.81;5052071;28;20064;-44
2023/04/16 07:44:32;;;;;;;10.38;6.07;;;;;;;7.88;nan;102324.06;5051657;28;20029;-43
2023/04/16 07:46:57;;;;;;;12.52;5.40;;;;;;;7.86;nan;102330.16;5051687;28;20044;-47
2023/04/16 07:49:22;;;;;;;12.23;6.03;;;;;;;8.09;nan;102377.41;5051593;28;20076;-49
2023/04/16 07:51:48;;;;;;;10.82;5.63;;;;;;;8.20;nan;102405.41;5052370;28;20040;-41
2023/04/16 07:54:13;;;;;;;10.85;5.40;;;;;;;8.27;nan;102408.94;5055007;28;20401;-43
2023/04/16 07:56:38;;;;;;;11.00;6.07;;;;;;;7.94;nan;102339.78;5054891;28;20044;-44
2023/04/16 07:59:04;;;;;;;13.50;6.20;;;;;;;8.34;nan;102409.00;5055266;28;20035;-45
2023/04/16 08:01:29;;;;;;;11.88;6.35;;;;;;;7.99;nan;102347.69;5055286;28;20396;-46
2023/04/16 08:03:55;;;;;;;12.65;6.72;;;;;;;8.34;nan;102398.50;5070580;28;20415;-43
2023/04/16 08:06:20;;;;;;;12.50;6.05;;;;;;;8.37;nan;102387.13;5053696;28;20079;-41
2023/04/16 08:08:45;;;;;;;11.75;6.72;;;;;;;8.57;nan;102403.78;5055400;28;20064;-43
2023/04/16 08:11:11;;;;;;;11.50;5.97;;;;;;;8.58;nan;102413.38;5054871;28;20069;-45
2023/04/16 08:13:36;;;;;;;13.88;5.40;;;;;;;8.51;nan;102405.50;5055149;28;20460;-42
2023/04/16 08:16:01;;;;;;;12.45;5.85;;;;;;;8.53;nan;102411.63;5054718;28;20081;-45
2023/04/16 08:18:27;;;;;;;10.52;4.85;;;;;;;8.48;nan;102415.13;5053725;28;20064;-44
2023/04/16 08:20:52;;;;;;;8.20;4.97;;;;;;;8.44;nan;102402.88;5054847;28;20040;-45
2023/04/16 08:23:17;;;;;;;11.43;5.63;;;;;;;8.44;nan;102413.38;5054841;28;20400;-44
2023/04/16 08:25:43;;;;;;;10.77;5.70;;;;;;;8.52;nan;102431.78;5070225;28;20400;-45
2023/04/16 08:28:08;;;;;;;11.68;5.82;;;;;;;8.27;nan;102373.13;5054667;28;20503;-43
2023/04/16 08:30:33;;;;;;;10.88;5.78;;;;;;;8.61;nan;102420.41;5054545;28;20388;-45
2023/04/16 08:32:59;;;;;;;10.70;5.60;;;;;;;8.67;nan;102428.28;5053699;28;20437;-45
2023/04/16 08:35:24;;;;;;;9.18;5.80;;;;;;;8.30;nan;102370.50;5069989;28;20033;-46
2023/04/16 08:37:49;;;;;;;9.40;5.43;;;;;;;8.68;nan;102432.63;5054616;28;20465;-45
2023/04/16 08:40:15;;;;;;;12.10;6.40;;;;;;;8.32;nan;102367.88;5054223;28;20037;-45
2023/04/16 08:42:57;;;;;;;8.32;5.70;;;;;;;8.75;nan;102430.03;5069719;28;20036;-43
2023/04/16 08:45:25;;;;;;;11.07;5.80;;;;;;;8.78;nan;102429.16;5054619;28;20021;-45
2023/04/16 08:47:51;;;;;;;12.77;5.40;;;;;;;8.92;nan;102437.91;5054478;28;20047;-43
2023/04/16 08:50:21;;;;;;;11.65;5.35;;;;;;;8.84;nan;102431.78;5054088;28;20029;-43
2023/04/16 08:52:58;;;;;;;13.43;5.90;;;;;;;8.76;nan;102442.25;5054206;28;20056;-45
2023/04/16 08:55:46;;;;;;;7.28;5.00;;;;;;;8.81;nan;102444.91;5054267;28;20502;-45
2023/04/16 08:58:19;;;;;;;10.63;5.50;;;;;;;8.39;nan;102382.75;5052849;28;20029;-41
2023/04/16 09:00:47;;;;;;;14.85;4.80;;;;;;;8.61;nan;102449.28;5052790;28;20037;-42
2023/04/16 09:03:13;;;;;;;12.40;5.55;;;;;;;8.66;nan;102458.91;5051755;28;20082;-44
2023/04/16 09:05:38;;;;;;;12.20;5.70;;;;;;;8.77;nan;102458.91;5054028;28;20419;-45
2023/04/16 09:08:05;;;;;;;11.15;5.10;;;;;;;8.73;nan;102457.13;5052905;28;20033;-43
2023/04/16 09:10:31;;;;;;;9.82;4.88;;;;;;;8.48;nan;102391.53;5068994;28;20119;-45
2023/04/16 09:12:56;;;;;;;10.45;5.55;;;;;;;8.47;nan;102389.75;5052558;28;20120;-45
2023/04/16 09:15:24;;;;;;;12.32;6.15;;;;;;;8.86;nan;102451.03;5052228;28;20462;-46
2023/04/16 09:17:49;;;;;;;15.80;6.20;;;;;;;8.82;nan;102451.91;5051966;28;20106;-42
2023/04/16 09:20:15;;;;;;;13.70;5.63;;;;;;;8.78;nan;102443.16;5052336;28;20154;-42
2023/04/16 09:22:42;;;;;;;15.48;6.13;;;;;;;8.83;nan;102456.28;5053462;28;20349;-44
2023/04/16 09:25:07;;;;;;;19.95;6.57;;;;;;;8.87;nan;102455.41;5052512;28;20025;-45
2023/04/16 09:27:33;;;;;;;18.48;6.07;;;;;;;8.81;nan;102437.91;5053616;28;20174;-45
2023/04/16 09:29:58;;;;;;;11.95;6.80;;;;;;;8.64;nan;102402.03;5068547;28;20065;-45
2023/04/16 09:32:28;;;;;;;21.15;6.97;;;;;;;9.03;nan;102465.91;5053154;28;20041;-42
2023/04/16 09:35:00;;;;;;;17.00;5.88;;;;;;;8.89;nan;102448.41;5052490;28;20063;-44
2023/04/16 09:37:28;;;;;;;15.02;6.13;;;;;;;8.68;nan;102414.25;5053329;28;20033;-44
2023/04/16 09:40:03;;;;;;;15.80;6.05;;;;;;;8.98;nan;102469.41;5053375;28;20051;-45
2023/04/16 09:42:31;;;;;;;13.10;6.30;;;;;;;8.79;nan;102444.00;5034662;28;20036;-44
2023/04/16 09:44:56;;;;;;;13.50;6.32;;;;;;;9.03;nan;102483.41;5067925;28;20029;-41
2023/04/16 09:47:23;;;;;;;14.98;6.30;;;;;;;8.97;nan;102465.03;5068190;28;20037;-44
2023/04/16 09:49:48;;;;;;;21.27;6.68;;;;;;;8.94;nan;102476.41;5068266;28;20111;-43
2023/04/16 09:52:15;;;;;;;14.98;6.65;;;;;;;8.66;nan;102416.91;5051586;28;20547;-45
2023/04/16 09:54:50;;;;;;;21.40;7.20;;;;;;;9.10;nan;102490.44;5068331;28;20095;-45
2023/04/16 09:57:23;;;;;;;11.75;6.70;;;;;;;9.07;nan;102472.06;5052728;28;20028;-43
2023/04/16 09:59:52;;;;;;;15.75;6.93;;;;;;;8.87;nan;102426.53;5052854;28;20108;-41
2023/04/16 10:02:18;;;;;;;17.02;7.43;;;;;;;9.14;nan;102476.41;5034938;28;20423;-48
2023/04/16 10:04:51;;;;;;;14.70;7.28;;;;;;;8.80;nan;102435.28;5051163;28;20072;-43
2023/04/16 10:07:17;;;;;;;14.93;7.97;;;;;;;8.82;nan;102433.50;5051207;28;20126;-43
2023/04/16 10:09:43;;;;;;;17.50;6.78;;;;;;;9.11;nan;102486.06;5050975;28;20037;-42
2023/04/16 10:12:09;;;;;;;15.20;8.10;;;;;;;8.77;nan;102445.78;5049740;28;20107;-44
2023/04/16 10:14:34;;;;;;;13.73;6.88;;;;;;;8.98;nan;102490.44;5050699;28;20029;-44
2023/04/16 10:17:01;;;;;;;11.88;6.95;;;;;;;9.09;nan;102493.94;5049588;28;20057;-45
2023/04/16 10:19:27;;;;;;;14.93;7.32;;;;;;;9.18;nan;102501.81;5049892;28;20033;-46
2023/04/16 10:21:54;;;;;;;11.98;6.90;;;;;;;9.30;nan;102506.19;5051016;28;20040;-44
2023/04/16 10:24:19;;;;;;;12.57;5.75;;;;;;;9.31;nan;102508.78;5066882;28;20358;-45
2023/04/16 10:26:46;;;;;;;16.42;6.65;;;;;;;9.25;nan;102505.31;5050727;28;20081;-43
2023/04/16 10:29:12;;;;;;;13.75;7.22;;;;;;;9.22;nan;102500.94;5051019;28;20029;-42
2023/04/16 10:31:38;;;;;;;11.48;6.80;;;;;;;9.24;nan;102499.19;5050836;28;20491;-43
2023/04/16 10:34:04;;;;;;;9.80;6.47;;;;;;;9.22;nan;102502.69;5066492;28;20043;-45
2023/04/16 10:36:30;;;;;;;9.52;5.78;;;;;;;8.90;nan;102474.66;5051411;28;20098;-45
2023/04/16 10:38:57;;;;;;;13.63;6.70;;;;;;;9.07;nan;102495.69;5051083;28;20029;-42
2023/04/16 10:41:25;;;;;;;14.95;7.15;;;;;;;9.29;nan;102515.81;5033502;28;20033;-43
2023/04/16 10:43:50;;;;;;;21.88;6.95;;;;;;;9.28;nan;102518.47;5051068;28;20036;-43
2023/04/16 10:46:30;;;;;;;15.52;6.50;;;;;;;8.85;nan;102446.66;5049695;28;20563;-44
2023/04/16 10:48:59;;;;;;;14.80;6.72;;;;;;;8.76;nan;102463.28;5050794;28;20415;-47
2023/04/16 10:51:33;;;;;;;9.35;6.05;;;;;;;9.18;nan;102519.31;5032422;28;20040;-44
2023/04/16 10:54:03;;;;;;;10.75;6.15;;;;;;;9.33;nan;102514.94;5050481;28;20052;-47
2023/04/16 10:56:31;;;;;;;20.88;7.05;;;;;;;9.38;nan;102528.06;5050507;28;20044;-45
2023/04/16 10:58:57;;;;;;;11.18;6.50;;;;;;;9.32;nan;102515.81;5049555;28;20427;-44
2023/04/16 11:01:31;;;;;;;15.40;6.90;;;;;;;9.01;nan;102457.16;5032991;28;20060;-43
2023/04/16 11:04:01;;;;;;;10.23;5.63;;;;;;;9.12;nan;102496.56;5050706;28;20163;-44
2023/04/16 11:06:27;;;;;;;15.15;5.90;;;;;;;9.12;nan;102507.06;5049381;28;20124;-46
2023/04/16 11:08:53;;;;;;;14.73;7.03;;;;;;;9.20;nan;102510.56;5050333;28;20037;-44
2023/04/16 11:11:19;;;;;;;11.25;6.47;;;;;;;9.21;nan;102498.31;5065958;28;20041;-42
2023/04/16 11:13:45;;;;;;;9.25;6.10;;;;;;;9.23;nan;102523.69;5050690;28;20036;-42
2023/04/16 11:16:14;;;;;;;13.30;5.97;;;;;;;9.32;nan;102517.56;5066045;28;20480;-46
2023/04/16 11:18:40;;;;;;;10.30;5.93;;;;;;;9.08;nan;102471.16;5050473;28;20037;-45
2023/04/16 11:21:11;;;;;;;11.35;5.90;;;;;;;9.25;nan;102500.91;5049518;28;20048;-45
2023/04/16 11:23:47;;;;;;;17.42;6.05;;;;;;;9.35;nan;102528.06;5050752;28;20041;-46
2023/04/16 11:26:26;;;;;;;13.23;6.47;;;;;;;9.40;nan;102521.94;5049230;28;20033;-42
2023/04/16 11:28:53;;;;;;;10.75;6.13;;;;;;;9.16;nan;102464.16;5055095;28;20029;-42
2023/04/16 11:31:19;;;;;;;14.85;5.70;;;;;;;9.16;nan;102458.03;5053196;28;20029;-43
2023/04/16 11:33:44;;;;;;;13.45;5.57;;;;;;;9.01;nan;102449.28;5054432;28;20033;-42
2023/04/16 11:36:09;;;;;;;12.60;6.50;;;;;;;9.42;nan;102504.44;5054165;28;20605;-43
2023/04/16 11:38:36;;;;;;;13.38;7.30;;;;;;;9.14;nan;102444.88;5054257;28;20041;-42